Time;durP1;ratioP1;P1;durP2;ratioP2;P2;SDS_P1;SDS_P2;PMS_P1;PMS_P2;Temp;Humidity;BMP_temperature;BMP_pressure;BME280_temperature;BME280_humidity;BME280_pressure;Samples;Min_cycle;Max_cycle;Signal;HPM_P1;HPM_P2
2022/06/21 00:02:23;;;;;;;3.92;1.30;;;17.60;77.10;;;;;;10506345;28;20099;-57
2022/06/21 00:07:26;;;;;;;2.78;1.13;;;17.60;77.10;;;;;;10509374;28;20043;-59
2022/06/21 00:12:27;;;;;;;3.08;1.63;;;17.60;77.20;;;;;;10510082;28;20031;-59
2022/06/21 00:17:27;;;;;;;2.47;1.10;;;17.60;77.20;;;;;;10509182;28;20519;-58
2022/06/21 00:22:28;;;;;;;1.50;1.13;;;17.60;77.20;;;;;;10509449;28;21038;-56
2022/06/21 00:27:29;;;;;;;2.50;1.20;;;17.60;77.20;;;;;;10508333;28;20056;-60
2022/06/21 00:32:30;;;;;;;3.47;1.25;;;17.60;77.20;;;;;;10509130;28;20024;-56
2022/06/21 00:37:31;;;;;;;1.83;1.00;;;17.50;77.20;;;;;;10509990;28;20020;-58
2022/06/21 00:42:36;;;;;;;2.28;1.08;;;17.50;77.20;;;;;;10507335;28;20039;-58
2022/06/21 00:47:47;;;;;;;2.58;1.15;;;17.50;77.20;;;;;;10505042;28;20488;-60
2022/06/21 00:53:22;;;;;;;3.28;1.30;;;17.50;77.20;;;;;;10508441;28;20024;-61
2022/06/21 00:58:30;;;;;;;3.58;1.60;;;17.50;77.10;;;;;;10506723;28;20052;-58
2022/06/21 01:03:38;;;;;;;6.03;1.35;;;17.40;77.20;;;;;;10505130;28;20536;-61
2022/06/21 01:08:42;;;;;;;3.13;1.17;;;17.40;77.20;;;;;;10512763;28;20032;-62
2022/06/21 01:13:47;;;;;;;1.55;1.20;;;17.40;77.20;;;;;;10509173;28;20120;-58
2022/06/21 01:18:48;;;;;;;3.95;1.20;;;17.40;77.20;;;;;;10506008;28;20371;-61
2022/06/21 01:24:04;;;;;;;3.53;1.27;;;17.40;77.20;;;;;;10508785;28;20058;-60
2022/06/21 01:29:22;;;;;;;1.40;1.20;;;17.30;77.20;;;;;;10507674;28;20020;-60
2022/06/21 01:34:25;;;;;;;2.88;1.38;;;17.30;77.20;;;;;;10503945;28;20047;-59
2022/06/21 01:39:33;;;;;;;2.97;1.55;;;17.30;77.20;;;;;;10509430;28;20039;-59
2022/06/21 01:44:40;;;;;;;1.63;1.10;;;17.30;77.20;;;;;;10506992;28;20036;-60
2022/06/21 01:49:47;;;;;;;1.30;0.98;;;17.20;77.20;;;;;;10509307;28;20142;-58
2022/06/21 01:54:56;;;;;;;2.55;1.50;;;17.20;77.20;;;;;;10503319;28;20024;-58
2022/06/21 01:59:58;;;;;;;0.90;0.90;;;17.20;77.20;;;;;;10509528;28;20492;-59
2022/06/21 02:05:04;;;;;;;2.08;1.30;;;17.20;77.20;;;;;;10500689;28;20032;-59
2022/06/21 02:10:11;;;;;;;1.83;1.00;;;17.10;77.10;;;;;;10506872;28;20028;-59
2022/06/21 02:15:35;;;;;;;2.97;1.42;;;17.10;77.10;;;;;;10499026;28;20169;-59
2022/06/21 02:20:57;;;;;;;2.97;1.17;;;17.10;77.00;;;;;;10502192;28;20036;-58
2022/06/21 02:25:58;;;;;;;2.95;1.02;;;17.10;77.00;;;;;;10505054;28;20024;-58
2022/06/21 02:31:00;;;;;;;2.63;1.20;;;17.10;77.10;;;;;;10503220;28;20027;-59
2022/06/21 02:36:05;;;;;;;2.55;1.20;;;17.10;77.10;;;;;;10517372;28;20165;-58
2022/06/21 02:41:18;;;;;;;2.05;1.00;;;17.00;77.00;;;;;;10513878;28;20035;-59
2022/06/21 02:46:29;;;;;;;1.58;0.98;;;17.00;77.00;;;;;;10513392;28;20086;-60
2022/06/21 02:51:38;;;;;;;1.77;1.00;;;17.00;77.00;;;;;;10510790;28;20020;-58
2022/06/21 02:56:46;;;;;;;1.65;1.25;;;17.00;77.00;;;;;;10514657;28;20036;-58
2022/06/21 03:01:55;;;;;;;1.20;1.10;;;16.90;77.00;;;;;;10513661;28;20044;-58
2022/06/21 03:06:56;;;;;;;2.20;1.10;;;16.90;76.90;;;;;;10512956;28;20027;-59
2022/06/21 03:12:04;;;;;;;1.02;0.90;;;16.90;76.90;;;;;;10514079;28;20028;-56
2022/06/21 03:17:08;;;;;;;1.20;0.98;;;16.90;76.90;;;;;;10509131;28;20051;-62
2022/06/21 03:22:25;;;;;;;2.15;1.02;;;16.80;76.80;;;;;;10509193;28;20036;-57
2022/06/21 03:27:47;;;;;;;1.23;0.75;;;16.80;76.90;;;;;;10515944;28;20133;-61
2022/06/21 03:32:49;;;;;;;2.35;1.10;;;16.80;76.80;;;;;;10516189;28;20142;-60
2022/06/21 03:37:50;;;;;;;2.03;1.10;;;16.80;76.90;;;;;;10508143;28;20028;-58
2022/06/21 03:42:55;;;;;;;1.00;0.88;;;16.70;76.80;;;;;;10432726;28;20040;-57
2022/06/21 03:47:59;;;;;;;2.35;1.20;;;16.70;76.70;;;;;;10419674;28;20123;-56
2022/06/21 03:53:23;;;;;;;2.13;0.98;;;16.70;76.70;;;;;;10418932;28;20249;-57
2022/06/21 03:59:03;;;;;;;2.63;1.08;;;16.70;76.50;;;;;;10421977;28;20111;-56
2022/06/21 04:04:13;;;;;;;2.42;1.30;;;16.70;76.50;;;;;;10416390;28;20090;-58
2022/06/21 04:09:42;;;;;;;1.40;1.02;;;16.60;76.50;;;;;;10419911;28;20036;-58
2022/06/21 04:15:04;;;;;;;1.45;1.20;;;16.70;76.40;;;;;;10423323;28;20479;-58
2022/06/21 04:20:11;;;;;;;3.63;1.10;;;16.70;76.50;;;;;;10423501;28;20564;-57
2022/06/21 04:25:22;;;;;;;3.77;1.23;;;16.60;76.50;;;;;;10408010;28;20024;-56
2022/06/21 04:30:43;;;;;;;2.10;1.30;;;16.60;76.40;;;;;;10416534;28;20059;-59
2022/06/21 04:36:25;;;;;;;2.25;1.10;;;16.60;76.40;;;;;;10411654;28;20039;-58
2022/06/21 04:41:42;;;;;;;2.03;1.02;;;16.60;76.40;;;;;;10424461;28;20125;-57
2022/06/21 04:46:47;;;;;;;2.63;1.27;;;16.70;76.40;;;;;;10423196;28;20036;-58
2022/06/21 04:51:57;;;;;;;2.90;1.13;;;16.60;76.40;;;;;;10413604;28;20020;-57
2022/06/21 04:57:13;;;;;;;3.55;1.40;;;16.60;76.30;;;;;;10410496;28;20110;-58
2022/06/21 05:02:31;;;;;;;2.80;1.27;;;16.60;76.40;;;;;;10412815;28;20044;-57
2022/06/21 05:07:44;;;;;;;2.07;1.33;;;16.60;76.60;;;;;;10415095;28;20845;-56
2022/06/21 05:12:46;;;;;;;1.77;1.10;;;16.60;76.70;;;;;;10414214;28;20291;-57
2022/06/21 05:17:56;;;;;;;1.95;1.20;;;16.60;76.70;;;;;;10425117;28;20087;-59
2022/06/21 05:23:01;;;;;;;2.17;1.20;;;16.60;76.80;;;;;;10414087;28;20032;-57
2022/06/21 05:28:13;;;;;;;3.08;1.25;;;16.70;77.00;;;;;;10422782;28;20407;-57
2022/06/21 05:33:23;;;;;;;2.10;1.30;;;16.70;77.00;;;;;;10413122;28;20068;-59
2022/06/21 05:38:27;;;;;;;4.32;1.30;;;16.70;77.00;;;;;;10410539;28;20509;-57
2022/06/21 05:43:37;;;;;;;2.95;1.40;;;16.70;77.10;;;;;;10416733;28;20032;-57
2022/06/21 05:48:40;;;;;;;4.95;1.40;;;16.70;77.30;;;;;;10418482;28;20028;-55
2022/06/21 05:53:45;;;;;;;1.90;1.30;;;16.70;77.40;;;;;;10421179;28;20028;-57
2022/06/21 05:58:55;;;;;;;2.85;1.30;;;16.70;77.30;;;;;;10413554;28;20024;-57
2022/06/21 06:04:15;;;;;;;3.25;1.20;;;16.70;77.40;;;;;;10421823;28;20071;-57
2022/06/21 06:09:21;;;;;;;3.63;1.60;;;16.70;77.90;;;;;;10425695;28;20036;-57
2022/06/21 06:14:22;;;;;;;2.97;1.65;;;16.70;77.90;;;;;;10424057;28;20028;-57
2022/06/21 06:19:47;;;;;;;1.98;1.20;;;16.70;78.20;;;;;;10424867;28;20075;-57
2022/06/21 06:24:58;;;;;;;7.82;1.35;;;16.80;78.70;;;;;;10421127;28;20021;-59
2022/06/21 06:30:04;;;;;;;6.28;2.20;;;16.80;79.10;;;;;;10424610;28;20956;-59
2022/06/21 06:35:14;;;;;;;2.97;1.77;;;16.70;79.30;;;;;;10423120;28;20032;-60
2022/06/21 06:46:18;;;;;;;;;;;16.50;81.60;;;;;;10346917;28;20079;-59
2022/06/21 06:51:43;;;;;;;3.97;1.80;;;16.30;83.40;;;;;;10334867;28;19951;-58
2022/06/21 06:57:20;;;;;;;6.05;2.03;;;16.40;82.50;;;;;;10334779;28;20478;-60
2022/06/21 07:02:55;;;;;;;4.03;1.85;;;16.50;82.50;;;;;;10325336;28;20088;-60
2022/06/21 07:08:02;;;;;;;5.45;2.00;;;16.50;83.30;;;;;;10325750;28;20675;-59
2022/06/21 07:13:03;;;;;;;2.97;1.98;;;16.60;82.20;;;;;;10336231;28;22253;-60
2022/06/21 07:18:07;;;;;;;5.03;2.05;;;16.50;82.30;;;;;;10418884;28;20043;-61
2022/06/21 07:23:16;;;;;;;4.45;1.80;;;16.40;82.80;;;;;;10419229;28;20095;-60
2022/06/21 07:28:32;;;;;;;2.63;1.27;;;16.40;83.20;;;;;;10408624;28;20050;-60
2022/06/21 07:33:40;;;;;;;2.85;1.58;;;16.30;83.20;;;;;;10415432;28;20036;-60
2022/06/21 07:39:16;;;;;;;7.72;1.88;;;16.30;83.50;;;;;;10421358;28;20024;-59
2022/06/21 07:44:34;;;;;;;4.65;1.90;;;16.40;84.90;;;;;;10401836;28;20591;-58
2022/06/21 07:49:38;;;;;;;4.45;1.63;;;16.40;84.00;;;;;;10401585;28;20479;-59
2022/06/21 07:54:45;;;;;;;3.97;1.90;;;16.50;83.50;;;;;;10410746;28;20526;-57
2022/06/21 07:59:57;;;;;;;2.75;1.30;;;16.60;83.50;;;;;;10421399;28;20043;-58
2022/06/21 08:10:48;;;;;;;5.25;2.08;;;16.80;82.90;;;;;;10415916;28;20454;-57
2022/06/21 08:15:57;;;;;;;4.78;1.40;;;16.80;82.90;;;;;;10416151;28;20040;-58
2022/06/21 08:21:03;;;;;;;2.05;1.13;;;16.90;82.50;;;;;;10414170;28;20591;-57
2022/06/21 08:26:12;;;;;;;5.35;1.65;;;17.00;82.20;;;;;;10415479;28;20024;-57
2022/06/21 08:31:27;;;;;;;2.88;1.27;;;17.10;82.10;;;;;;10411084;28;20312;-57
2022/06/21 08:36:52;;;;;;;1.67;1.08;;;17.10;81.90;;;;;;10406579;28;20308;-58
2022/06/21 08:42:23;;;;;;;1.42;1.00;;;17.20;82.30;;;;;;10413386;28;20857;-56
2022/06/21 08:47:30;;;;;;;2.03;0.95;;;17.20;81.70;;;;;;10402121;28;20021;-56
2022/06/21 08:52:49;;;;;;;1.48;1.02;;;17.30;81.30;;;;;;10406546;28;20035;-57
2022/06/21 08:58:05;;;;;;;2.10;0.90;;;17.40;81.20;;;;;;10404000;28;20102;-57
2022/06/21 09:03:05;;;;;;;2.05;1.13;;;17.40;81.00;;;;;;10405438;28;20047;-56
2022/06/21 09:08:32;;;;;;;1.35;1.00;;;17.50;80.70;;;;;;10406388;28;20515;-57
2022/06/21 09:14:10;;;;;;;4.10;1.13;;;17.40;80.50;;;;;;10402726;28;20032;-56
2022/06/21 09:19:38;;;;;;;2.05;0.90;;;17.60;80.90;;;;;;10416336;28;20036;-58
2022/06/21 09:24:46;;;;;;;1.67;1.00;;;17.70;80.10;;;;;;10408366;28;20824;-57
2022/06/21 09:30:13;;;;;;;2.92;1.08;;;17.80;79.80;;;;;;10409784;28;20100;-57
2022/06/21 09:35:17;;;;;;;1.45;0.82;;;17.80;79.70;;;;;;10403125;28;20143;-57
2022/06/21 09:40:31;;;;;;;3.05;0.88;;;17.90;79.50;;;;;;10406526;28;20046;-57
2022/06/21 09:45:56;;;;;;;2.58;0.93;;;17.90;79.30;;;;;;10412250;28;20425;-57
2022/06/21 09:51:26;;;;;;;1.83;0.80;;;18.00;79.20;;;;;;10400234;28;20028;-56
2022/06/21 09:56:46;;;;;;;1.33;0.93;;;18.10;79.00;;;;;;10405607;28;20060;-58
2022/06/21 10:02:08;;;;;;;1.48;1.02;;;18.10;78.90;;;;;;10400254;28;20032;-57
2022/06/21 10:07:26;;;;;;;1.10;0.98;;;18.10;78.80;;;;;;10405163;28;20035;-57
2022/06/21 10:12:56;;;;;;;1.70;1.00;;;18.20;78.70;;;;;;10409379;28;20562;-58
2022/06/21 10:18:11;;;;;;;1.80;0.98;;;18.20;78.50;;;;;;10399688;28;20133;-56
2022/06/21 10:23:27;;;;;;;2.38;0.93;;;18.30;78.50;;;;;;10399885;28;20059;-57
2022/06/21 10:28:54;;;;;;;1.25;1.00;;;18.30;78.40;;;;;;10403122;28;20313;-56
2022/06/21 10:34:22;;;;;;;2.35;1.15;;;18.40;78.10;;;;;;10391551;28;20820;-58
2022/06/21 10:39:36;;;;;;;1.55;0.95;;;18.40;78.00;;;;;;10405546;28;20304;-57
2022/06/21 10:44:46;;;;;;;0.93;0.88;;;18.60;77.90;;;;;;10404686;28;20039;-57
2022/06/21 10:50:08;;;;;;;2.38;1.17;;;18.70;77.60;;;;;;10398259;28;20033;-57
2022/06/21 10:55:25;;;;;;;1.23;0.90;;;18.70;77.50;;;;;;10411483;28;20723;-57
2022/06/21 11:06:39;;;;;;;1.30;0.90;;;19.00;77.00;;;;;;10411174;28;20985;-58
2022/06/21 11:17:50;;;;;;;3.33;1.10;;;19.10;76.80;;;;;;10409869;28;20094;-57
2022/06/21 11:23:06;;;;;;;1.88;1.05;;;19.10;76.60;;;;;;10411481;28;20043;-58
2022/06/21 11:28:31;;;;;;;1.80;0.88;;;19.20;76.60;;;;;;10405360;28;20055;-58
2022/06/21 11:33:46;;;;;;;1.90;1.10;;;19.30;76.50;;;;;;10409602;28;20029;-57
2022/06/21 11:38:57;;;;;;;1.60;1.48;;;19.30;76.50;;;;;;10408121;28;20027;-57
2022/06/21 11:44:15;;;;;;;1.10;1.00;;;19.40;76.40;;;;;;10414522;28;20036;-57
2022/06/21 11:49:59;;;;;;;6.60;2.03;;;19.50;76.20;;;;;;10400018;28;20039;-57
2022/06/21 11:55:27;;;;;;;1.90;1.05;;;19.70;76.20;;;;;;10293650;28;20294;-57
2022/06/21 12:00:40;;;;;;;2.55;1.10;;;19.50;76.00;;;;;;10406380;28;21074;-57
2022/06/21 12:05:49;;;;;;;1.88;1.10;;;19.50;76.20;;;;;;10410188;28;21330;-57
2022/06/21 12:10:52;;;;;;;1.23;1.00;;;19.50;76.40;;;;;;10407925;28;20544;-57
2022/06/21 12:16:20;;;;;;;1.10;0.80;;;19.60;76.70;;;;;;10406802;28;20075;-59
2022/06/21 12:21:26;;;;;;;1.15;0.90;;;19.70;76.30;;;;;;10405605;28;20115;-58
2022/06/21 12:26:29;;;;;;;2.38;1.02;;;19.80;76.20;;;;;;10411559;28;20024;-58
2022/06/21 12:31:33;;;;;;;1.77;0.85;;;19.90;76.10;;;;;;10408536;28;20250;-57
2022/06/21 12:36:38;;;;;;;2.95;1.20;;;19.90;76.00;;;;;;10410158;28;20167;-58
2022/06/21 12:41:54;;;;;;;2.35;1.38;;;19.90;75.80;;;;;;10402903;28;20047;-58
2022/06/21 12:47:33;;;;;;;1.02;0.80;;;20.10;75.70;;;;;;10406222;28;20109;-58
2022/06/21 12:52:54;;;;;;;1.95;1.15;;;20.20;75.50;;;;;;10380817;28;20678;-58
2022/06/21 12:58:16;;;;;;;3.08;1.00;;;20.50;75.50;;;;;;10407067;28;20213;-57
2022/06/21 13:03:25;;;;;;;3.33;1.23;;;20.20;75.30;;;;;;10398655;28;21070;-58
2022/06/21 13:08:52;;;;;;;3.30;0.90;;;20.20;75.40;;;;;;10407217;28;20039;-58
2022/06/21 13:14:30;;;;;;;1.40;1.00;;;20.30;75.30;;;;;;10408719;28;20118;-57
2022/06/21 13:20:01;;;;;;;2.67;1.10;;;20.40;75.20;;;;;;10409987;28;20143;-57
2022/06/21 13:25:24;;;;;;;10.13;2.22;;;20.50;75.00;;;;;;10405010;28;20132;-57
2022/06/21 13:30:46;;;;;;;2.17;1.00;;;20.70;74.70;;;;;;10411237;28;20135;-58
2022/06/21 13:36:13;;;;;;;2.65;0.95;;;20.80;74.40;;;;;;10405311;28;20196;-58
2022/06/21 13:46:47;;;;;;;3.23;0.93;;;21.00;74.10;;;;;;10398400;28;20063;-58
2022/06/21 13:52:06;;;;;;;1.17;1.00;;;21.20;74.00;;;;;;10409857;28;20119;-56
2022/06/21 13:57:33;;;;;;;2.53;1.08;;;21.30;73.80;;;;;;10403690;28;20407;-57
2022/06/21 14:02:51;;;;;;;2.25;1.08;;;21.40;73.50;;;;;;10410050;28;20456;-58
2022/06/21 14:08:19;;;;;;;3.15;1.30;;;21.40;73.50;;;;;;10402473;28;20034;-57
2022/06/21 14:13:54;;;;;;;1.33;1.10;;;21.40;73.30;;;;;;10405729;28;20032;-57
2022/06/21 14:19:17;;;;;;;1.23;1.02;;;21.50;73.40;;;;;;10405504;28;20931;-57
2022/06/21 14:24:48;;;;;;;1.65;0.93;;;21.60;73.20;;;;;;10404546;28;20068;-57
2022/06/21 14:30:00;;;;;;;1.88;1.00;;;21.80;72.90;;;;;;10409867;28;20148;-57
2022/06/21 14:35:17;;;;;;;1.85;1.00;;;21.80;72.90;;;;;;10414116;28;20483;-58
2022/06/21 14:40:42;;;;;;;1.00;1.00;;;21.90;72.90;;;;;;10409143;28;20036;-57
2022/06/21 14:46:26;;;;;;;1.08;0.77;;;21.90;72.60;;;;;;10418524;28;20039;-57
2022/06/21 14:51:54;;;;;;;1.75;1.20;;;22.00;72.60;;;;;;10407042;28;20468;-58
2022/06/21 14:57:17;;;;;;;7.35;1.40;;;22.20;72.60;;;;;;10414939;28;20335;-59
2022/06/21 15:02:36;;;;;;;5.38;1.42;;;22.20;71.30;;;;;;10407240;28;20410;-60
2022/06/21 15:08:01;;;;;;;2.03;0.93;;;22.30;68.80;;;;;;10409193;28;20055;-60
2022/06/21 15:13:15;;;;;;;2.55;1.40;;;22.30;68.10;;;;;;10409373;28;20320;-59
2022/06/21 15:18:25;;;;;;;2.60;1.20;;;22.40;66.40;;;;;;10418648;28;20051;-59
2022/06/21 15:23:42;;;;;;;2.40;1.10;;;22.90;67.30;;;;;;10417007;28;20117;-60
2022/06/21 15:28:47;;;;;;;1.40;0.80;;;23.30;65.90;;;;;;10409915;28;20040;-63
2022/06/21 15:33:53;;;;;;;2.33;1.10;;;23.80;65.10;;;;;;10407117;28;20064;-60
2022/06/21 15:39:13;;;;;;;2.88;1.40;;;24.10;64.50;;;;;;10407990;28;20016;-59
2022/06/21 15:44:28;;;;;;;1.38;1.00;;;24.10;64.10;;;;;;10409472;28;20159;-59
2022/06/21 15:55:08;;;;;;;2.10;0.90;;;23.60;64.90;;;;;;10407780;28;20075;-59
2022/06/21 16:00:18;;;;;;;6.03;1.15;;;23.30;64.90;;;;;;10407097;28;20037;-59
2022/06/21 16:05:35;;;;;;;2.38;1.10;;;23.20;64.60;;;;;;10402588;28;20086;-59
2022/06/21 16:10:42;;;;;;;2.77;1.20;;;23.00;65.20;;;;;;10404907;28;20587;-61
2022/06/21 16:16:00;;;;;;;2.92;1.35;;;22.90;65.60;;;;;;10413101;28;20153;-62
2022/06/21 16:21:15;;;;;;;3.47;1.25;;;22.80;65.80;;;;;;10413065;28;21837;-62
2022/06/21 16:26:26;;;;;;;6.30;1.55;;;22.70;65.00;;;;;;10398275;28;20136;-63
2022/06/21 16:37:11;;;;;;;3.35;1.15;;;22.40;67.20;;;;;;10401774;28;20025;-61
2022/06/21 16:42:58;;;;;;;2.08;1.30;;;22.30;66.30;;;;;;10398738;28;20461;-60
2022/06/21 16:48:32;;;;;;;4.85;1.30;;;22.30;67.20;;;;;;10402706;28;20072;-60
2022/06/21 16:53:47;;;;;;;2.25;1.40;;;22.20;67.40;;;;;;10402074;28;20625;-61
2022/06/21 16:58:54;;;;;;;4.20;1.20;;;22.20;67.80;;;;;;10406333;28;20484;-60
2022/06/21 17:04:01;;;;;;;3.45;1.15;;;22.10;67.40;;;;;;10401719;28;20445;-60
2022/06/21 17:09:30;;;;;;;3.07;1.53;;;22.10;67.20;;;;;;10401311;28;20085;-61
2022/06/21 17:14:40;;;;;;;2.38;1.40;;;22.10;65.80;;;;;;10410785;28;20936;-60
2022/06/21 17:19:56;;;;;;;3.28;1.15;;;21.90;66.80;;;;;;10411247;28;20041;-59
2022/06/21 17:25:00;;;;;;;3.75;1.35;;;21.80;66.90;;;;;;10410958;28;20395;-61
2022/06/21 17:30:06;;;;;;;4.57;1.73;;;21.70;67.20;;;;;;10407079;28;20791;-60
2022/06/21 17:35:18;;;;;;;2.72;1.85;;;21.70;67.90;;;;;;10410684;28;20105;-59
2022/06/21 17:40:34;;;;;;;3.08;1.95;;;21.60;68.20;;;;;;10413670;28;20052;-60
2022/06/21 17:45:44;;;;;;;4.82;1.65;;;21.50;68.40;;;;;;10418335;28;20740;-61
2022/06/21 17:50:53;;;;;;;4.20;2.67;;;21.40;68.80;;;;;;10412943;28;20031;-60
2022/06/21 17:55:59;;;;;;;6.03;3.85;;;21.40;71.30;;;;;;10411860;28;20241;-60
2022/06/21 18:01:24;;;;;;;6.57;4.13;;;21.20;72.50;;;;;;10403867;28;20048;-61
2022/06/21 18:06:36;;;;;;;8.10;3.50;;;21.10;74.00;;;;;;10406348;28;20439;-60
2022/06/21 18:11:52;;;;;;;8.65;4.75;;;20.80;75.30;;;;;;10408605;28;20028;-61
2022/06/21 18:17:02;;;;;;;8.32;4.28;;;20.60;76.80;;;;;;10413345;28;20067;-61
2022/06/21 18:22:39;;;;;;;13.93;6.07;;;20.50;77.30;;;;;;10411544;28;20035;-60
2022/06/21 18:27:52;;;;;;;10.47;4.83;;;20.30;78.10;;;;;;10392569;28;20137;-60
2022/06/21 18:32:59;;;;;;;9.23;4.25;;;20.20;77.90;;;;;;10409881;28;20805;-60
2022/06/21 18:38:29;;;;;;;6.93;3.80;;;20.10;77.80;;;;;;10411366;28;20879;-60
2022/06/21 18:43:55;;;;;;;7.45;3.70;;;20.00;78.70;;;;;;10414667;28;20036;-59
2022/06/21 18:49:15;;;;;;;10.93;4.03;;;20.20;79.40;;;;;;10424474;28;20630;-61
2022/06/21 18:54:34;;;;;;;6.93;3.63;;;20.10;78.80;;;;;;10420534;28;20035;-61
2022/06/21 18:59:55;;;;;;;7.72;3.42;;;20.00;79.40;;;;;;10420044;28;20050;-59
2022/06/21 19:10:44;;;;;;;7.55;3.50;;;19.90;80.00;;;;;;10420036;28;20150;-59
2022/06/21 19:16:07;;;;;;;6.47;2.72;;;19.80;80.30;;;;;;10418830;28;20645;-60
2022/06/21 19:21:16;;;;;;;8.43;2.88;;;20.00;79.50;;;;;;10412249;28;20051;-58
2022/06/21 19:26:41;;;;;;;6.03;2.92;;;20.20;78.90;;;;;;10411598;28;20485;-59
2022/06/21 19:31:54;;;;;;;6.57;2.90;;;20.30;78.50;;;;;;10407022;28;20125;-61
2022/06/21 19:37:20;;;;;;;6.70;2.50;;;20.50;78.20;;;;;;10413232;28;20117;-58
2022/06/21 19:42:51;;;;;;;3.58;2.50;;;20.50;78.20;;;;;;10400822;28;20138;-58
2022/06/21 19:48:00;;;;;;;3.97;2.60;;;20.80;78.10;;;;;;10415641;28;20661;-58
2022/06/21 19:53:02;;;;;;;6.93;2.75;;;20.60;77.60;;;;;;10408762;28;20836;-58
2022/06/21 19:58:38;;;;;;;5.32;2.60;;;20.60;77.50;;;;;;10416692;28;20134;-58
2022/06/21 20:03:59;;;;;;;5.20;2.38;;;20.70;77.60;;;;;;10412049;28;20467;-58
2022/06/21 20:09:11;;;;;;;3.90;2.42;;;20.60;77.60;;;;;;10412821;28;20032;-58
2022/06/21 20:14:43;;;;;;;4.88;2.67;;;20.70;77.60;;;;;;10415908;28;20885;-58
2022/06/21 20:19:45;;;;;;;3.28;2.47;;;20.60;77.60;;;;;;10423541;28;20280;-59
2022/06/21 20:24:56;;;;;;;3.50;2.40;;;20.60;77.70;;;;;;10418901;28;20591;-59
2022/06/21 20:29:59;;;;;;;3.63;2.85;;;20.60;77.60;;;;;;10502334;28;20043;-58
2022/06/21 20:35:07;;;;;;;5.88;2.78;;;20.60;77.70;;;;;;10508435;28;20032;-61
2022/06/21 20:40:31;;;;;;;4.60;2.70;;;20.60;77.70;;;;;;10507358;28;20127;-61
2022/06/21 20:45:37;;;;;;;2.90;2.58;;;20.60;77.70;;;;;;10496817;28;20036;-61
2022/06/21 20:50:45;;;;;;;7.03;2.85;;;20.50;77.70;;;;;;10503753;28;20227;-61
2022/06/21 20:56:01;;;;;;;3.40;2.50;;;20.50;77.70;;;;;;10500832;28;20044;-59
2022/06/21 21:01:06;;;;;;;5.20;2.67;;;20.50;77.80;;;;;;10503164;28;20033;-59
2022/06/21 21:06:11;;;;;;;5.03;2.88;;;20.50;77.90;;;;;;10506568;28;20031;-58
2022/06/21 21:11:16;;;;;;;4.63;2.80;;;20.40;77.90;;;;;;10502679;28;20165;-58
2022/06/21 21:16:29;;;;;;;3.95;2.88;;;20.40;77.90;;;;;;10507827;28;20446;-57
2022/06/21 21:21:49;;;;;;;4.65;3.17;;;20.40;77.90;;;;;;10500737;28;20085;-59
2022/06/21 21:27:00;;;;;;;5.15;2.85;;;20.40;78.00;;;;;;10509249;28;20473;-60
2022/06/21 21:32:06;;;;;;;4.78;2.90;;;20.30;78.00;;;;;;10505943;28;20028;-57
2022/06/21 21:37:43;;;;;;;3.05;2.72;;;20.40;78.00;;;;;;10509016;28;20052;-57
2022/06/21 21:42:58;;;;;;;3.30;2.90;;;20.30;78.10;;;;;;10490601;28;20112;-57
2022/06/21 21:47:59;;;;;;;4.43;3.00;;;20.20;78.00;;;;;;10504467;28;20066;-60
2022/06/21 21:53:00;;;;;;;3.65;2.88;;;20.20;78.00;;;;;;10498819;28;20085;-57
2022/06/21 21:58:02;;;;;;;6.35;2.70;;;20.20;78.10;;;;;;10500178;28;20021;-58
2022/06/21 22:03:11;;;;;;;3.47;2.95;;;20.10;78.70;;;;;;10509669;28;20047;-57
2022/06/21 22:08:27;;;;;;;4.97;2.90;;;20.10;78.10;;;;;;10504998;28;20370;-58
2022/06/21 22:13:49;;;;;;;3.08;2.83;;;20.10;78.70;;;;;;10505838;28;20024;-57
2022/06/21 22:19:20;;;;;;;3.75;3.22;;;20.10;78.20;;;;;;10504735;28;20036;-57
2022/06/21 22:24:23;;;;;;;3.63;2.75;;;20.00;78.20;;;;;;10507368;28;20062;-58
2022/06/21 22:29:28;;;;;;;3.40;3.00;;;20.00;78.20;;;;;;10502373;28;20032;-57
2022/06/21 22:34:40;;;;;;;3.50;2.85;;;20.00;78.30;;;;;;10498229;28;20032;-57
2022/06/21 22:39:53;;;;;;;3.35;2.60;;;19.90;78.30;;;;;;10501793;28;20032;-57
2022/06/21 22:44:58;;;;;;;5.90;3.08;;;19.90;78.40;;;;;;10497141;28;20020;-58
2022/06/21 22:50:06;;;;;;;4.50;2.92;;;19.90;78.40;;;;;;10507491;28;20024;-60
2022/06/21 22:55:09;;;;;;;4.43;3.00;;;19.80;78.50;;;;;;10512784;28;20024;-58
2022/06/21 23:00:21;;;;;;;5.53;2.60;;;19.80;78.50;;;;;;10502792;28;20044;-57
2022/06/21 23:05:42;;;;;;;5.55;2.92;;;19.70;78.50;;;;;;10509880;28;20031;-56
2022/06/21 23:11:00;;;;;;;3.55;2.95;;;19.70;78.60;;;;;;10506339;28;20115;-57
2022/06/21 23:16:04;;;;;;;3.55;2.95;;;19.70;78.70;;;;;;10505541;28;20420;-58
2022/06/21 23:21:11;;;;;;;6.32;3.15;;;19.60;78.70;;;;;;10505596;28;20082;-57
2022/06/21 23:26:33;;;;;;;5.40;2.97;;;19.60;78.80;;;;;;10509358;28;20038;-57
2022/06/21 23:31:46;;;;;;;6.68;2.90;;;19.60;78.80;;;;;;10511011;28;20038;-59
2022/06/21 23:36:46;;;;;;;6.35;3.00;;;19.50;78.80;;;;;;10506403;28;20107;-57
2022/06/21 23:41:48;;;;;;;4.32;2.92;;;19.50;78.80;;;;;;10509573;28;20031;-57
2022/06/21 23:46:50;;;;;;;5.15;3.08;;;19.50;78.90;;;;;;10513925;28;20035;-57
2022/06/21 23:51:53;;;;;;;4.70;2.88;;;19.40;78.90;;;;;;10501405;28;20480;-58
2022/06/21 23:56:57;;;;;;;4.00;2.70;;;19.40;78.90;;;;;;10506378;28;20036;-60
